Time;durP1;ratioP1;P1;durP2;ratioP2;P2;SDS_P1;SDS_P2;PMS_P1;PMS_P2;Temp;Humidity;BMP_temperature;BMP_pressure;BME280_temperature;BME280_humidity;BME280_pressure;Samples;Min_cycle;Max_cycle;Signal;HPM_P1;HPM_P2
2022/05/05 00:01:26;;;;;;;13.95;8.30;;;;;;;9.64;82.45;67844.53;6065996;23;20019;-84
2022/05/05 00:03:51;;;;;;;15.40;8.63;;;;;;;9.59;82.41;67839.41;6061293;23;20047;-85
2022/05/05 00:06:17;;;;;;;15.20;9.05;;;;;;;9.55;82.35;67834.88;6063601;23;20050;-85
2022/05/05 00:08:42;;;;;;;12.98;8.25;;;;;;;9.48;82.74;67827.50;6073131;23;20082;-86
2022/05/05 00:14:23;;;;;;;11.68;7.78;;;;;;;9.44;83.12;67825.06;5961568;24;20074;-86
2022/05/05 00:16:52;;;;;;;12.55;8.50;;;;;;;;;;6055178;23;20018;-86
2022/05/05 00:19:17;;;;;;;15.97;8.37;;;;;;;9.33;83.93;67809.94;6064919;23;20034;-86
2022/05/05 00:21:42;;;;;;;10.65;7.70;;;;;;;9.31;84.23;67807.66;6066876;23;20251;-86
2022/05/05 00:24:08;;;;;;;13.55;8.30;;;;;;;9.24;84.47;67800.31;6067016;23;20114;-84
2022/05/05 00:26:34;;;;;;;11.65;8.07;;;;;;;9.16;84.95;67794.44;6068153;23;20018;-85
2022/05/05 00:28:59;;;;;;;14.10;8.32;;;;;;;9.11;85.00;67791.44;6064113;23;20648;-85
2022/05/05 00:31:25;;;;;;;13.63;8.82;;;;;;;9.06;85.51;67791.06;6065265;23;20105;-85
2022/05/05 00:33:51;;;;;;;14.95;8.57;;;;;;;9.00;85.59;67773.66;6065172;23;20023;-84
2022/05/05 00:36:16;;;;;;;13.45;7.75;;;;;;;;;;6065442;23;20070;-85
2022/05/05 00:38:41;;;;;;;12.43;8.05;;;;;;;8.85;86.04;67756.66;6065088;23;20038;-85
2022/05/05 00:41:08;;;;;;;14.30;8.45;;;;;;;8.74;86.39;67747.97;6064727;23;20026;-86
2022/05/05 00:43:34;;;;;;;17.52;9.52;;;;;;;8.68;87.24;67737.97;6065291;23;20051;-86
2022/05/05 00:46:00;;;;;;;13.63;8.77;;;;;;;;;;6063563;23;20450;-87
2022/05/05 00:48:27;;;;;;;15.50;8.43;;;;;;;8.59;87.55;67728.91;6065229;23;20070;-87
2022/05/05 00:50:53;;;;;;;13.15;8.55;;;;;;;8.54;87.93;67725.31;6067808;23;20030;-86
2022/05/05 00:53:19;;;;;;;14.70;8.20;;;;;;;8.53;87.96;67722.09;6065162;23;20330;-86
2022/05/05 00:55:45;;;;;;;15.32;8.95;;;;;;;8.48;88.05;67716.44;6064430;23;20053;-85
2022/05/05 00:58:12;;;;;;;16.58;8.45;;;;;;;8.52;88.01;67720.41;6067784;23;20477;-85
2022/05/05 01:00:38;;;;;;;15.52;7.93;;;;;;;8.51;87.72;67719.25;6063623;23;20030;-88
2022/05/05 01:03:07;;;;;;;15.18;9.30;;;;;;;8.48;88.15;67715.88;6086288;23;20019;-87
2022/05/05 01:05:32;;;;;;;15.40;8.95;;;;;;;8.43;88.19;67710.78;6066187;23;20053;-85
2022/05/05 01:07:58;;;;;;;16.17;8.80;;;;;;;8.31;88.72;67702.47;6062099;23;20011;-86
2022/05/05 01:10:25;;;;;;;13.13;8.60;;;;;;;8.23;89.17;67688.69;6063089;23;20050;-86
2022/05/05 07:07:27;;;;;;;17.10;10.88;;;;;;;11.36;75.01;68035.16;6042124;23;20111;-86
2022/05/05 07:12:37;;;;;;;17.75;11.00;;;;;;;11.51;73.16;68052.78;6046208;23;20018;-83
2022/05/05 07:15:03;;;;;;;17.58;12.40;;;;;;;;;;6045601;23;20087;-85
2022/05/05 07:17:28;;;;;;;21.05;12.10;;;;;;;11.72;73.84;68076.06;6045762;23;20109;-86
2022/05/05 07:19:54;;;;;;;22.02;12.32;;;;;;;11.82;73.46;68086.84;6021565;23;20485;-85
2022/05/05 07:22:19;;;;;;;17.08;11.30;;;;;;;;;;6054035;23;20062;-85
2022/05/05 07:24:45;;;;;;;16.40;10.43;;;;;;;;;;6055072;23;20019;-85
2022/05/05 07:27:10;;;;;;;16.60;10.07;;;;;;;11.97;72.27;68103.34;6050152;23;20019;-85
2022/05/05 07:29:37;;;;;;;15.65;10.02;;;;;;;11.98;71.91;68104.47;6048790;23;20019;-85
2022/05/05 07:32:03;;;;;;;19.55;12.18;;;;;;;12.03;72.60;68109.59;6047820;23;20015;-86
2022/05/05 07:34:29;;;;;;;17.77;10.27;;;;;;;;;;6025825;23;20051;-86
2022/05/05 07:36:54;;;;;;;18.88;10.27;;;;;;;12.11;71.07;68118.69;6026326;23;20075;-85
2022/05/05 07:39:19;;;;;;;16.15;10.45;;;;;;;12.24;71.56;68133.47;6023050;23;20023;-84
2022/05/05 07:42:13;;;;;;;16.15;10.30;;;;;;;12.27;70.99;68136.31;6024614;23;20016;-86
2022/05/05 07:44:39;;;;;;;18.85;10.18;;;;;;;12.34;71.48;68144.81;6048902;23;20016;-87
2022/05/05 07:47:04;;;;;;;18.73;10.50;;;;;;;;;;6042353;23;20516;-83
2022/05/05 07:49:29;;;;;;;16.88;10.02;;;;;;;12.30;70.99;68134.94;6045076;23;20020;-84
2022/05/05 07:51:55;;;;;;;15.98;9.90;;;;;;;12.39;71.33;68145.16;6043523;23;20026;-85
2022/05/05 07:54:43;;;;;;;16.75;9.93;;;;;;;12.54;69.69;68166.41;6019500;23;20095;-83
2022/05/05 07:57:11;;;;;;;14.30;9.30;;;;;;;12.63;68.69;68176.66;6043812;23;20070;-84
2022/05/05 07:59:38;;;;;;;14.38;9.65;;;;;;;12.56;69.07;68168.69;6045414;23;20183;-84
2022/05/05 08:02:04;;;;;;;14.52;9.45;;;;;;;12.66;67.97;68180.06;6018809;23;20102;-86
2022/05/05 08:04:31;;;;;;;13.68;8.98;;;;;;;12.78;69.57;68199.03;6044039;23;20022;-85
2022/05/05 08:06:56;;;;;;;14.05;9.13;;;;;;;12.85;68.24;68201.66;6067530;23;20047;-84
2022/05/05 08:09:21;;;;;;;14.10;9.55;;;;;;;12.83;68.18;68198.81;6075097;23;20588;-85
2022/05/05 08:11:47;;;;;;;17.95;9.27;;;;;;;12.95;68.41;68211.91;6073707;23;20019;-84
2022/05/05 08:14:12;;;;;;;18.50;9.93;;;;;;;13.03;68.97;68220.97;6073155;23;20037;-85
2022/05/05 08:16:38;;;;;;;16.00;9.68;;;;;;;13.17;67.89;68236.34;6072072;23;20011;-84
2022/05/05 08:19:04;;;;;;;20.27;9.38;;;;;;;13.09;66.21;68230.50;6070522;23;20023;-83
2022/05/05 08:21:30;;;;;;;30.52;10.18;;;;;;;13.16;66.72;68235.75;6070999;23;20034;-85
2022/05/05 08:29:23;;;;;;;13.27;8.65;;;;;;;;;;6074583;23;20055;-84
2022/05/05 08:31:48;;;;;;;14.07;8.15;;;;;;;;;;6072741;23;20027;-84
2022/05/05 08:34:14;;;;;;;14.60;8.67;;;;;;;13.46;62.28;68268.75;6070071;23;20034;-84
2022/05/05 08:36:39;;;;;;;14.50;8.43;;;;;;;13.38;63.38;68260.25;6068840;23;20250;-86
2022/05/05 08:39:04;;;;;;;12.55;8.52;;;;;;;;;;6072026;23;20027;-84
2022/05/05 08:41:33;;;;;;;13.80;8.73;;;;;;;13.40;63.59;68261.94;6074419;23;20018;-85
2022/05/05 08:44:00;;;;;;;15.02;8.05;;;;;;;13.44;62.45;68267.06;6070035;23;20254;-84
2022/05/05 08:46:27;;;;;;;17.90;9.05;;;;;;;13.51;63.52;68269.69;6071556;23;20015;-85
2022/05/05 08:48:59;;;;;;;13.18;7.88;;;;;;;13.62;61.45;68286.97;6070963;23;20256;-84
2022/05/05 08:51:27;;;;;;;14.68;8.70;;;;;;;13.75;62.19;68301.78;6069889;23;20082;-84
2022/05/05 08:53:56;;;;;;;14.45;7.78;;;;;;;;;;6071422;23;20035;-84
2022/05/05 08:56:21;;;;;;;11.00;7.45;;;;;;;13.96;59.94;68319.75;6069696;23;20023;-85
2022/05/05 08:58:48;;;;;;;12.40;7.55;;;;;;;14.00;60.07;68329.06;6070535;23;20047;-84
2022/05/05 09:01:13;;;;;;;12.45;7.47;;;;;;;14.08;59.79;68337.59;6069569;23;20413;-87
2022/05/05 09:03:39;;;;;;;11.63;7.10;;;;;;;14.25;59.37;68356.41;6073457;23;20062;-83
2022/05/05 09:06:04;;;;;;;13.00;8.10;;;;;;;14.26;59.94;68357.53;6070696;23;20110;-85
2022/05/05 09:08:33;;;;;;;12.13;7.32;;;;;;;;;;6072260;23;20018;-84
2022/05/05 09:11:01;;;;;;;13.32;8.05;;;;;;;;;;6068402;23;20106;-85
2022/05/05 09:13:34;;;;;;;13.98;7.55;;;;;;;14.41;62.15;68377.84;6072466;23;20109;-83
2022/05/05 09:16:00;;;;;;;15.52;8.88;;;;;;;;;;6093387;23;20066;-85
2022/05/05 09:18:32;;;;;;;12.13;8.10;;;;;;;;;;6070143;23;20039;-83
2022/05/05 09:20:58;;;;;;;11.52;7.13;;;;;;;;;;6071114;23;20107;-83
2022/05/05 09:23:34;;;;;;;13.15;7.80;;;;;;;;;;6073885;23;20492;-83
2022/05/05 09:26:01;;;;;;;12.98;7.80;;;;;;;;;;6069714;23;20019;-84
2022/05/05 09:28:28;;;;;;;11.82;8.20;;;;;;;;;;6073252;23;20026;-83
2022/05/05 09:30:54;;;;;;;16.55;7.95;;;;;;;;;;6071789;23;20026;-84
2022/05/05 09:33:37;;;;;;;11.88;8.05;;;;;;;15.34;57.18;68472.88;6071376;23;20553;-84
2022/05/05 09:36:26;;;;;;;14.85;8.65;;;;;;;15.09;56.26;68445.53;6071579;23;20035;-84
2022/05/05 09:38:51;;;;;;;;;;;;;;;;;;6079161;23;20049;-83
2022/05/05 09:41:28;;;;;;;11.93;7.30;;;;;;;;;;6074430;23;19910;-83
2022/05/05 09:43:55;;;;;;;12.18;7.32;;;;;;;15.74;57.00;68517.34;6070768;23;20015;-84
2022/05/05 09:46:26;;;;;;;10.30;7.32;;;;;;;16.10;55.38;68557.22;6069326;23;20030;-84
2022/05/05 09:49:13;;;;;;;12.50;7.25;;;;;;;16.11;56.13;68563.72;6073101;23;20026;-83
2022/05/05 09:57:45;;;;;;;11.43;6.22;;;;;;;;;;6038882;23;20083;-84
2022/05/05 10:00:44;;;;;;;10.27;6.05;;;;;;;16.28;52.21;68574.47;6057427;23;20039;-85
2022/05/05 10:05:58;;;;;;;12.68;6.72;;;;;;;16.54;52.54;68612.19;6055506;23;20394;-84
2022/05/05 10:08:37;;;;;;;10.75;6.85;;;;;;;16.42;52.26;68599.06;6042828;23;20476;-84
2022/05/05 10:11:07;;;;;;;11.30;6.60;;;;;;;16.33;54.33;68583.44;6041552;23;20027;-83
2022/05/05 10:13:35;;;;;;;12.52;6.90;;;;;;;;;;6018126;23;20475;-82
2022/05/05 10:16:02;;;;;;;15.20;7.37;;;;;;;16.39;52.61;68589.72;6042605;23;20031;-83
2022/05/05 10:18:28;;;;;;;9.35;6.47;;;;;;;;;;6019134;23;20332;-83
2022/05/05 10:20:56;;;;;;;11.45;6.45;;;;;;;16.53;51.69;68605.66;6041662;23;20015;-83
2022/05/05 10:23:28;;;;;;;13.45;6.63;;;;;;;16.91;53.88;68648.44;6017703;23;20032;-84
2022/05/05 10:25:55;;;;;;;8.35;5.97;;;;;;;16.87;51.58;68648.69;6039504;23;20366;-83
2022/05/05 10:28:40;;;;;;;8.63;6.05;;;;;;;;;;6042392;23;20043;-84
2022/05/05 10:31:31;;;;;;;9.73;6.93;;;;;;;16.76;49.78;68631.34;6041855;23;20122;-82
2022/05/05 10:34:02;;;;;;;9.48;6.03;;;;;;;;;;6041695;23;20023;-85
2022/05/05 10:36:29;;;;;;;9.48;5.60;;;;;;;16.92;49.58;68649.59;6040497;23;20019;-84
2022/05/05 10:38:54;;;;;;;11.25;6.00;;;;;;;16.81;50.43;68642.44;6017992;23;20062;-83
2022/05/05 10:41:36;;;;;;;9.85;5.93;;;;;;;16.90;50.10;68652.69;6045328;23;20403;-84
2022/05/05 10:44:13;;;;;;;8.43;5.45;;;;;;;17.09;49.08;68668.41;6046000;23;20019;-84
2022/05/05 10:46:57;;;;;;;9.75;5.70;;;;;;;17.09;49.30;68673.22;6045681;23;20478;-84
2022/05/05 10:49:42;;;;;;;10.25;6.38;;;;;;;17.57;49.57;68721.47;6044753;23;20019;-85
2022/05/05 10:52:10;;;;;;;11.10;5.95;;;;;;;17.78;49.69;68745.47;6022757;23;20501;-84
2022/05/05 10:54:43;;;;;;;11.18;6.55;;;;;;;17.98;47.96;68767.13;6050991;23;20020;-83
2022/05/05 10:57:27;;;;;;;10.90;6.07;;;;;;;17.86;47.94;68754.00;6048504;23;21565;-84
2022/05/05 11:00:07;;;;;;;10.07;6.43;;;;;;;17.72;48.11;68738.59;6038361;23;20019;-83
2022/05/05 11:02:34;;;;;;;9.90;5.68;;;;;;;17.56;48.55;68725.72;6039239;23;20207;-85
2022/05/05 11:05:18;;;;;;;11.32;6.90;;;;;;;;;;6036108;23;20058;-83
2022/05/05 11:07:44;;;;;;;8.95;5.93;;;;;;;;;;6038555;23;20090;-84
2022/05/05 11:10:41;;;;;;;8.60;6.30;;;;;;;17.78;45.86;68742.75;6038096;23;20027;-83
2022/05/05 11:13:07;;;;;;;9.20;6.10;;;;;;;17.75;45.39;68742.00;6039021;23;20071;-83
2022/05/05 11:21:32;;;;;;;11.05;5.53;;;;;;;18.17;44.22;68788.25;6039066;23;20532;-83
2022/05/05 11:23:59;;;;;;;10.80;5.15;;;;;;;18.04;44.45;68774.56;6012204;23;20019;-84
2022/05/05 11:26:25;;;;;;;8.10;5.13;;;;;;;18.07;45.43;68776.81;6039270;23;20071;-83
2022/05/05 11:28:51;;;;;;;9.15;6.00;;;;;;;18.01;43.55;68776.53;6037514;23;20019;-83
2022/05/05 11:31:23;;;;;;;8.00;5.63;;;;;;;18.06;44.67;68776.25;6034382;23;20015;-82
2022/05/05 11:34:00;;;;;;;9.57;6.55;;;;;;;18.24;44.73;68802.22;6035325;23;20042;-82
2022/05/05 11:36:34;;;;;;;8.13;5.63;;;;;;;18.61;45.43;68837.91;6032493;23;20015;-83
2022/05/05 11:39:01;;;;;;;10.02;6.32;;;;;;;18.86;47.11;68862.66;6032435;23;20098;-83
2022/05/05 11:41:29;;;;;;;10.02;5.72;;;;;;;19.04;45.00;68885.34;6032728;23;20019;-84
2022/05/05 11:46:38;;;;;;;8.38;5.55;;;;;;;;;;6033645;23;20091;-83
2022/05/05 11:49:05;;;;;;;8.68;5.60;;;;;;;18.80;42.33;68858.50;6036314;23;20402;-83
2022/05/05 11:51:32;;;;;;;9.15;5.32;;;;;;;18.69;43.26;68847.03;6036770;23;20023;-83
2022/05/05 11:53:59;;;;;;;10.23;5.50;;;;;;;18.90;43.23;68869.91;6011371;23;20016;-83
2022/05/05 11:56:27;;;;;;;8.10;6.45;;;;;;;18.76;43.94;68854.50;6038313;23;20011;-83
2022/05/05 12:01:40;;;;;;;10.05;6.38;;;;;;;19.22;42.47;68905.91;6035348;23;20026;-83
2022/05/05 12:04:06;;;;;;;7.68;6.20;;;;;;;19.30;42.37;68915.03;6035003;23;20049;-83
2022/05/05 12:06:32;;;;;;;10.23;6.55;;;;;;;19.17;43.11;68900.75;6036410;23;20058;-83
2022/05/05 12:08:57;;;;;;;10.02;6.53;;;;;;;;;;6034195;23;20023;-83
2022/05/05 12:11:27;;;;;;;10.25;7.55;;;;;;;19.22;42.11;68899.91;6036231;23;20052;-83
2022/05/05 12:13:59;;;;;;;10.35;6.68;;;;;;;19.60;44.03;68953.59;6032742;23;20019;-83
2022/05/05 12:16:30;;;;;;;8.55;5.85;;;;;;;19.81;42.07;68977.03;6032995;23;20050;-83
2022/05/05 12:18:55;;;;;;;8.30;6.65;;;;;;;19.72;41.57;68959.22;6009120;23;20027;-83
2022/05/05 12:21:24;;;;;;;12.50;7.15;;;;;;;19.41;41.43;68926.47;6033403;23;20406;-84
2022/05/05 12:24:02;;;;;;;9.20;6.25;;;;;;;19.85;42.10;68973.50;6033209;23;20023;-83
2022/05/05 12:26:36;;;;;;;8.65;5.57;;;;;;;19.22;41.17;68905.91;6031628;23;20030;-83
2022/05/05 12:29:12;;;;;;;9.85;7.00;;;;;;;19.04;42.37;68879.94;6031854;23;20015;-83
2022/05/05 12:31:37;;;;;;;9.20;6.05;;;;;;;19.47;42.63;68930.63;6035026;23;20031;-83
2022/05/05 12:34:03;;;;;;;11.50;6.50;;;;;;;19.76;41.47;68965.91;6035302;23;20365;-83
2022/05/05 12:36:28;;;;;;;7.95;5.70;;;;;;;19.69;41.65;68953.09;6033699;23;20445;-83
2022/05/05 12:39:12;;;;;;;9.20;5.78;;;;;;;19.98;41.01;68991.06;6008695;23;20019;-84
2022/05/05 12:41:37;;;;;;;11.38;7.07;;;;;;;;;;6009735;23;20413;-84
2022/05/05 12:44:09;;;;;;;11.35;6.50;;;;;;;19.84;40.82;68975.06;6034253;23;20050;-83
2022/05/05 12:46:35;;;;;;;9.65;5.70;;;;;;;20.08;43.28;68998.63;6008830;23;20023;-84
2022/05/05 12:49:00;;;;;;;9.23;6.10;;;;;;;20.47;41.30;69040.53;6035781;23;20015;-84
2022/05/05 12:51:31;;;;;;;7.50;5.68;;;;;;;20.27;40.32;69020.94;6037240;23;20043;-83
2022/05/05 12:59:57;;;;;;;6.63;5.47;;;;;;;20.44;37.86;69039.81;6013902;23;20442;-83
2022/05/05 13:02:16;;;;;;;8.65;4.72;;;;;;;20.31;40.08;69027.63;6031243;23;20015;-82
2022/05/05 13:04:41;;;;;;;8.27;5.35;;;;;;;20.84;40.10;69087.13;6034088;23;20082;-83
2022/05/05 13:07:06;;;;;;;8.05;4.70;;;;;;;20.94;37.52;69098.56;6033503;23;20017;-82
2022/05/05 13:09:32;;;;;;;9.20;4.47;;;;;;;20.81;38.77;69080.44;6033367;23;20015;-82
2022/05/05 13:11:57;;;;;;;5.07;3.72;;;;;;;20.89;38.20;69092.84;6035747;23;20021;-83
2022/05/05 13:14:23;;;;;;;6.65;3.70;;;;;;;20.76;38.17;69072.56;6037795;23;20414;-83
2022/05/05 13:16:49;;;;;;;5.47;4.10;;;;;;;20.57;38.67;69056.84;6034999;23;20023;-83
2022/05/05 13:19:14;;;;;;;10.23;4.40;;;;;;;20.42;38.76;69036.94;6032029;23;20083;-83
2022/05/05 13:21:40;;;;;;;6.05;4.25;;;;;;;20.19;39.18;69013.91;6036803;23;20015;-83
2022/05/05 13:24:06;;;;;;;7.18;4.57;;;;;;;20.17;40.07;69006.81;6033390;23;20023;-83
2022/05/05 13:26:32;;;;;;;9.45;4.95;;;;;;;20.14;39.71;69008.19;6035127;23;20030;-83
2022/05/05 13:29:00;;;;;;;6.03;4.28;;;;;;;19.95;40.34;68992.47;6034709;23;20127;-83
2022/05/05 13:31:25;;;;;;;6.47;4.03;;;;;;;20.12;40.14;69005.94;6036418;23;20019;-83
2022/05/05 13:33:51;;;;;;;7.20;4.50;;;;;;;20.16;41.82;69010.50;6010186;23;20042;-83
2022/05/05 13:36:17;;;;;;;6.53;3.78;;;;;;;20.12;40.78;69003.78;6008719;23;20023;-83
2022/05/05 13:38:42;;;;;;;7.03;3.92;;;;;;;;;;6036479;23;20339;-83
2022/05/05 13:41:08;;;;;;;5.93;3.85;;;;;;;19.44;41.21;68927.19;6036313;23;20722;-83
2022/05/05 13:43:33;;;;;;;6.30;4.07;;;;;;;;;;6034030;23;20030;-83
2022/05/05 13:45:58;;;;;;;5.70;3.77;;;;;;;19.55;42.36;68943.03;6034182;23;20023;-84
2022/05/05 13:48:24;;;;;;;5.03;3.45;;;;;;;;;;6034996;23;20018;-83
2022/05/05 13:50:49;;;;;;;6.63;4.17;;;;;;;;;;6034013;23;20405;-82
2022/05/05 13:53:14;;;;;;;5.80;3.75;;;;;;;19.22;42.07;68905.91;6033503;23;20243;-82
2022/05/05 13:55:39;;;;;;;6.45;3.80;;;;;;;;;;6033723;23;20394;-82
2022/05/05 13:58:06;;;;;;;5.47;3.33;;;;;;;19.45;43.02;68928.91;6034286;23;20026;-81
2022/05/05 14:00:31;;;;;;;7.25;4.47;;;;;;;19.41;41.93;68931.88;6035986;23;20445;-82
2022/05/05 14:02:58;;;;;;;5.55;4.10;;;;;;;19.39;42.96;68924.75;6034618;23;20022;-83
2022/05/05 14:05:24;;;;;;;7.15;3.95;;;;;;;19.31;42.96;68915.63;6041318;23;20365;-82
2022/05/05 14:13:18;;;;;;;7.57;4.60;;;;;;;18.93;41.34;68873.34;6042376;23;20030;-82
2022/05/05 14:15:43;;;;;;;6.78;3.92;;;;;;;;;;6042701;23;20019;-82
2022/05/05 14:18:10;;;;;;;5.97;4.80;;;;;;;19.24;42.67;68907.59;6045144;23;20023;-81
2022/05/05 14:20:35;;;;;;;6.25;3.60;;;;;;;19.38;42.99;68920.91;6023672;23;20075;-81
2022/05/05 14:23:01;;;;;;;8.32;4.55;;;;;;;;;;6054805;23;20019;-81
2022/05/05 14:25:27;;;;;;;8.30;4.22;;;;;;;19.25;41.90;68908.75;6054480;23;20027;-81
2022/05/05 14:27:53;;;;;;;7.88;4.85;;;;;;;19.24;40.80;68904.91;6042156;23;20066;-81
2022/05/05 14:30:18;;;;;;;5.88;4.45;;;;;;;19.16;42.31;68899.63;6040618;23;20449;-81
2022/05/05 14:32:45;;;;;;;8.63;4.18;;;;;;;19.21;42.49;68904.19;6041783;23;20087;-82
2022/05/05 14:35:11;;;;;;;7.15;5.03;;;;;;;19.00;42.05;68878.06;6040913;23;20015;-82
2022/05/05 14:37:36;;;;;;;10.00;5.38;;;;;;;19.00;43.28;68878.06;6044809;23;20025;-82
2022/05/05 14:40:02;;;;;;;10.93;4.30;;;;;;;19.22;42.49;68903.22;6041811;23;20027;-80
2022/05/05 14:42:28;;;;;;;7.65;4.40;;;;;;;18.99;42.91;68874.81;6043043;23;20023;-82
2022/05/05 14:44:53;;;;;;;6.90;4.60;;;;;;;19.01;41.82;68882.47;6042967;23;20037;-82
2022/05/05 14:47:19;;;;;;;6.82;4.90;;;;;;;18.98;41.82;68876.34;6044080;23;20015;-81
2022/05/05 14:49:48;;;;;;;9.93;5.13;;;;;;;19.04;41.95;68885.91;6047094;23;20020;-82
2022/05/05 14:52:14;;;;;;;6.88;4.45;;;;;;;18.98;41.82;68879.03;6045047;23;20033;-81
2022/05/05 14:54:41;;;;;;;8.40;5.40;;;;;;;;;;6044561;23;20042;-80
2022/05/05 14:57:08;;;;;;;8.45;5.00;;;;;;;18.87;41.57;68866.47;6043157;23;20028;-81
2022/05/05 14:59:34;;;;;;;7.50;4.13;;;;;;;18.97;40.79;68875.22;6047005;23;20039;-81
2022/05/05 15:01:59;;;;;;;6.25;4.25;;;;;;;18.97;41.51;68875.22;6017934;23;20015;-81
2022/05/05 15:04:24;;;;;;;7.60;4.90;;;;;;;18.84;42.34;68860.94;6044365;23;20011;-81
2022/05/05 15:06:50;;;;;;;6.40;4.45;;;;;;;18.98;41.55;68878.47;6044937;23;20027;-81
2022/05/05 15:09:15;;;;;;;5.90;4.32;;;;;;;18.83;42.26;68859.22;6020012;23;20027;-80
2022/05/05 15:11:41;;;;;;;8.00;4.72;;;;;;;18.66;41.51;68843.63;6021538;23;20019;-81
2022/05/05 15:14:06;;;;;;;8.10;4.35;;;;;;;18.72;42.13;68850.47;6043725;23;20035;-81
2022/05/05 15:16:32;;;;;;;7.70;4.13;;;;;;;18.79;41.33;68857.94;6045898;23;20019;-81
2022/05/05 15:18:57;;;;;;;7.18;3.97;;;;;;;18.84;40.79;68860.34;6047907;23;20019;-80
2022/05/05 15:21:23;;;;;;;6.45;3.58;;;;;;;18.94;42.29;68874.50;6039597;23;20035;-81
2022/05/05 15:23:48;;;;;;;9.77;4.32;;;;;;;18.91;41.89;68871.63;6037952;23;20027;-81
2022/05/05 15:26:13;;;;;;;6.60;4.32;;;;;;;18.81;41.48;68860.19;6010449;23;20034;-80
2022/05/05 15:28:40;;;;;;;6.50;4.60;;;;;;;;;;6038790;23;20029;-81
2022/05/05 15:31:05;;;;;;;6.30;3.80;;;;;;;;;;6037367;23;20441;-80
2022/05/05 15:33:31;;;;;;;7.03;4.05;;;;;;;18.97;43.41;68872.53;6037598;23;20047;-80
2022/05/05 15:35:56;;;;;;;7.78;4.72;;;;;;;;;;6038200;23;20022;-80
2022/05/05 15:38:25;;;;;;;7.13;4.55;;;;;;;18.77;42.05;68855.63;6040816;23;20454;-80
2022/05/05 15:40:51;;;;;;;8.82;4.80;;;;;;;18.65;42.55;68841.91;6013268;23;20469;-80
2022/05/05 15:43:16;;;;;;;6.78;4.72;;;;;;;18.65;42.52;68841.91;6038518;23;20043;-81
2022/05/05 15:45:41;;;;;;;6.50;4.30;;;;;;;18.71;42.42;68848.78;6038543;23;20011;-80
2022/05/05 15:48:07;;;;;;;8.43;4.90;;;;;;;18.59;42.50;68840.47;6013335;23;20035;-81
2022/05/05 15:50:32;;;;;;;8.05;4.35;;;;;;;18.58;43.71;68831.78;6032933;23;20026;-81
2022/05/05 15:52:58;;;;;;;7.57;4.38;;;;;;;18.57;42.70;68833.34;6042227;23;20549;-81
2022/05/05 15:55:23;;;;;;;6.63;4.97;;;;;;;18.56;42.31;68837.59;6042691;23;20021;-82
2022/05/05 15:57:49;;;;;;;7.70;4.68;;;;;;;18.59;42.82;68835.63;6042516;23;20314;-82
2022/05/05 16:00:15;;;;;;;6.75;4.32;;;;;;;18.70;43.25;68847.63;6041688;23;20100;-81
2022/05/05 16:02:43;;;;;;;9.30;5.03;;;;;;;18.74;43.08;68846.25;6017870;23;20015;-81
2022/05/05 16:05:09;;;;;;;8.93;4.55;;;;;;;18.60;42.54;68834.06;6040284;23;20030;-81
2022/05/05 16:07:35;;;;;;;7.38;4.60;;;;;;;18.59;43.70;68835.06;6038062;23;20015;-81
2022/05/05 16:10:01;;;;;;;7.30;4.68;;;;;;;18.58;43.88;68831.22;6042080;23;20119;-82
2022/05/05 16:12:26;;;;;;;7.85;5.15;;;;;;;;;;6042044;23;20019;-82
2022/05/05 16:14:51;;;;;;;10.60;5.50;;;;;;;18.41;44.15;68815.66;6044118;23;20039;-82
2022/05/05 16:17:17;;;;;;;10.45;5.15;;;;;;;18.31;44.01;68804.22;6038826;23;20016;-81
2022/05/05 16:19:42;;;;;;;10.27;5.32;;;;;;;18.36;44.64;68809.38;6042741;23;20453;-82
2022/05/05 16:22:07;;;;;;;12.55;4.45;;;;;;;18.38;44.75;68808.94;6041847;23;20347;-81
2022/05/05 16:30:07;;;;;;;11.32;7.43;;;;;;;18.32;44.75;68805.38;6036677;23;20122;-83
2022/05/05 16:32:33;;;;;;;22.08;13.73;;;;;;;;;;6037424;23;20071;-84
2022/05/05 16:34:59;;;;;;;9.45;6.47;;;;;;;18.22;44.48;68793.97;6008853;23;20023;-84
2022/05/05 16:37:24;;;;;;;12.50;8.55;;;;;;;18.20;45.04;68797.63;6038302;23;20090;-83
2022/05/05 16:39:50;;;;;;;8.57;5.30;;;;;;;18.24;45.42;68793.53;6036740;23;20039;-81
2022/05/05 16:42:15;;;;;;;8.07;5.70;;;;;;;18.29;44.49;68799.25;6043855;23;20015;-81
2022/05/05 16:44:41;;;;;;;7.93;4.88;;;;;;;18.40;46.44;68814.50;6044732;23;20357;-81
2022/05/05 16:47:06;;;;;;;6.80;4.32;;;;;;;18.32;45.42;68804.81;6018071;23;20035;-81
2022/05/05 16:49:34;;;;;;;6.05;3.70;;;;;;;18.43;47.28;68817.38;6045472;23;20015;-81
2022/05/05 16:52:01;;;;;;;7.60;4.47;;;;;;;18.42;44.91;68813.53;6045361;23;20015;-81
2022/05/05 16:54:27;;;;;;;8.32;4.63;;;;;;;;;;6044027;23;20019;-82
2022/05/05 16:56:52;;;;;;;7.22;4.50;;;;;;;18.22;45.91;68793.97;6045289;23;20042;-82
2022/05/05 16:59:17;;;;;;;7.95;5.43;;;;;;;18.26;44.88;68796.41;6043472;23;20020;-82
2022/05/05 17:01:43;;;;;;;7.47;5.38;;;;;;;18.16;45.14;68793.06;6045224;23;20283;-82
2022/05/05 17:04:10;;;;;;;10.18;5.53;;;;;;;18.17;45.55;68783.44;6020246;23;20023;-81
2022/05/05 17:06:36;;;;;;;6.90;4.90;;;;;;;;;;6034960;23;20627;-80
2022/05/05 17:09:01;;;;;;;9.18;5.47;;;;;;;;;;6030009;23;20042;-80
2022/05/05 17:11:27;;;;;;;8.25;4.85;;;;;;;;;;6008814;23;20021;-81
2022/05/05 17:13:52;;;;;;;6.47;4.17;;;;;;;18.01;47.65;68768.44;6035834;23;20023;-81
2022/05/05 17:16:18;;;;;;;8.13;4.85;;;;;;;17.94;46.15;68763.13;6007510;23;20323;-81
2022/05/05 17:18:43;;;;;;;8.05;4.78;;;;;;;17.87;46.85;68751.91;6034324;23;20102;-81
2022/05/05 17:21:09;;;;;;;9.27;5.65;;;;;;;17.83;47.24;68747.88;6032380;23;20650;-80
2022/05/05 17:23:34;;;;;;;8.02;4.95;;;;;;;17.80;47.36;68745.03;6033051;23;20444;-81
2022/05/05 17:25:59;;;;;;;8.05;4.72;;;;;;;17.84;47.63;68751.16;6030385;23;20071;-81
2022/05/05 17:28:26;;;;;;;12.75;4.85;;;;;;;17.76;47.85;68743.16;6034050;23;20115;-81
2022/05/05 17:30:51;;;;;;;8.18;4.70;;;;;;;17.74;48.00;68734.91;6032998;23;20078;-83
2022/05/05 17:33:16;;;;;;;8.93;4.95;;;;;;;17.73;48.05;68739.16;6033910;23;20037;-82
2022/05/05 17:35:42;;;;;;;7.22;4.90;;;;;;;17.68;48.00;68734.00;6032056;23;20012;-83
2022/05/05 17:38:07;;;;;;;8.73;4.75;;;;;;;17.63;48.31;68725.03;6032425;23;20039;-83
2022/05/05 17:40:32;;;;;;;7.97;5.38;;;;;;;17.59;47.87;68724.31;6036595;23;20022;-82
2022/05/05 17:42:58;;;;;;;8.10;5.30;;;;;;;17.61;49.58;68726.03;6036435;23;20039;-82
2022/05/05 17:50:50;;;;;;;7.28;5.78;;;;;;;17.51;49.58;68720.00;6051415;23;20013;-82
2022/05/05 17:53:16;;;;;;;7.97;5.07;;;;;;;;;;6055538;23;20019;-81
2022/05/05 17:55:41;;;;;;;7.55;4.93;;;;;;;17.43;49.96;68706.06;6039520;23;20082;-82
2022/05/05 17:58:06;;;;;;;7.45;4.50;;;;;;;17.38;49.67;68700.38;6029975;23;20015;-82
2022/05/05 18:00:33;;;;;;;10.85;4.10;;;;;;;17.45;51.31;68708.34;6032375;23;20019;-81
2022/05/05 18:03:00;;;;;;;9.90;4.43;;;;;;;;;;6030199;23;20015;-81
2022/05/05 18:05:26;;;;;;;6.95;4.47;;;;;;;17.31;50.52;68692.94;6044029;23;20421;-81
2022/05/05 18:07:53;;;;;;;8.98;4.15;;;;;;;;;;6060804;23;20046;-81
2022/05/05 18:10:20;;;;;;;8.93;4.03;;;;;;;17.29;51.29;68690.66;6060162;23;20019;-81
2022/05/05 18:12:47;;;;;;;5.82;3.88;;;;;;;;;;6061183;23;20093;-81
2022/05/05 18:15:17;;;;;;;8.38;4.32;;;;;;;17.22;50.88;68679.41;6058040;23;20382;-81
2022/05/05 18:17:45;;;;;;;6.53;4.13;;;;;;;;;;6060219;23;20090;-81
2022/05/05 18:20:11;;;;;;;7.38;4.28;;;;;;;17.18;51.03;68675.44;6059839;23;20414;-81
2022/05/05 18:22:36;;;;;;;8.90;3.58;;;;;;;17.15;52.38;68674.69;6060780;23;20022;-80
2022/05/05 18:25:03;;;;;;;7.20;4.25;;;;;;;17.06;51.69;68669.78;6058150;23;20015;-80
2022/05/05 18:27:29;;;;;;;7.65;4.22;;;;;;;17.03;52.30;68661.56;6057491;23;20022;-80
2022/05/05 18:29:54;;;;;;;8.18;4.15;;;;;;;;;;6058968;23;20049;-80
2022/05/05 18:32:20;;;;;;;9.52;4.40;;;;;;;16.97;52.49;68654.72;6057804;23;20046;-81
2022/05/05 18:34:46;;;;;;;10.93;5.25;;;;;;;17.00;53.35;68654.88;6083121;23;20019;-80
2022/05/05 18:37:11;;;;;;;7.63;5.22;;;;;;;16.90;52.24;68646.75;6057149;23;20075;-80
2022/05/05 18:39:41;;;;;;;13.75;5.43;;;;;;;16.90;52.66;68647.31;6060830;23;20046;-80
2022/05/05 18:42:07;;;;;;;9.48;4.53;;;;;;;;;;6060909;23;20524;-80
2022/05/05 18:44:33;;;;;;;10.93;5.70;;;;;;;16.86;53.28;68642.16;6058817;23;20039;-80
2022/05/05 18:46:58;;;;;;;11.43;6.25;;;;;;;16.76;52.96;68636.13;6057629;23;20364;-80
2022/05/05 18:49:23;;;;;;;10.35;6.32;;;;;;;16.70;53.95;68624.47;6058381;23;20026;-81